Time;durP1;ratioP1;P1;durP2;ratioP2;P2;SDS_P1;SDS_P2;PMS_P1;PMS_P2;Temp;Humidity;BMP_temperature;BMP_pressure;BME280_temperature;BME280_humidity;BME280_pressure;Samples;Min_cycle;Max_cycle;Signal;HPM_P1;HPM_P2
2022/10/01 00:01:48;;;;;;;11.10;7.80;;;10.50;79.30;;;;;;5024422;28;20471;-76
2022/10/01 00:04:16;;;;;;;12.53;8.10;;;10.60;79.20;;;;;;5025121;28;20498;-76
2022/10/01 00:06:44;;;;;;;14.00;8.57;;;10.60;79.40;;;;;;5025769;28;21398;-76
2022/10/01 00:09:12;;;;;;;11.50;7.90;;;10.70;79.40;;;;;;5023473;28;20460;-75
2022/10/01 00:11:41;;;;;;;10.47;7.27;;;10.70;79.50;;;;;;5031084;28;20448;-76
2022/10/01 00:14:10;;;;;;;11.10;7.53;;;10.80;79.60;;;;;;5025803;28;20448;-74
2022/10/01 00:16:38;;;;;;;12.80;8.40;;;10.80;79.60;;;;;;5023977;28;21080;-76
2022/10/01 00:19:06;;;;;;;13.23;8.30;;;10.90;79.60;;;;;;5038040;28;20886;-75
2022/10/01 00:21:34;;;;;;;18.97;9.97;;;10.90;79.60;;;;;;5023609;28;21046;-75
2022/10/01 00:24:05;;;;;;;21.57;10.77;;;11.00;79.60;;;;;;5027468;28;20479;-74
2022/10/01 00:26:36;;;;;;;13.67;9.40;;;11.00;79.60;;;;;;5020809;28;20485;-74
2022/10/01 00:29:06;;;;;;;14.90;10.23;;;11.10;79.70;;;;;;5022179;28;20456;-75
2022/10/01 00:31:35;;;;;;;17.47;10.50;;;11.10;79.70;;;;;;5026331;28;20570;-74
2022/10/01 00:34:05;;;;;;;14.17;10.03;;;11.10;79.80;;;;;;5024432;28;20546;-75
2022/10/01 00:36:34;;;;;;;19.30;10.30;;;11.10;79.80;;;;;;5023159;28;20476;-74
2022/10/01 00:39:02;;;;;;;18.07;10.80;;;11.20;79.80;;;;;;5025100;28;20522;-75
2022/10/01 00:41:32;;;;;;;14.60;10.43;;;11.20;79.80;;;;;;5023695;28;21303;-74
2022/10/01 00:44:03;;;;;;;15.60;9.63;;;11.20;79.90;;;;;;5021958;28;20581;-73
2022/10/01 00:46:38;;;;;;;14.70;8.83;;;11.20;79.90;;;;;;5023978;28;20557;-74
2022/10/01 00:49:11;;;;;;;15.77;9.27;;;11.20;79.90;;;;;;5026959;28;20498;-74
2022/10/01 00:51:44;;;;;;;13.57;9.43;;;11.20;80.00;;;;;;5026403;28;20510;-75
2022/10/01 00:54:16;;;;;;;13.80;9.07;;;11.20;80.00;;;;;;5025686;28;20460;-73
2022/10/01 00:56:44;;;;;;;19.23;11.40;;;11.20;80.00;;;;;;5024705;28;20996;-74
2022/10/01 00:59:15;;;;;;;16.20;10.17;;;11.20;80.00;;;;;;5024603;28;20495;-75
2022/10/01 01:01:44;;;;;;;19.23;11.70;;;11.20;80.00;;;;;;5024287;28;20555;-74
2022/10/01 01:04:16;;;;;;;21.13;10.20;;;11.30;79.90;;;;;;5027175;28;20494;-75
2022/10/01 01:06:46;;;;;;;13.60;9.93;;;11.20;80.00;;;;;;5025257;28;20895;-75
2022/10/01 01:09:14;;;;;;;17.67;10.73;;;11.20;80.10;;;;;;5027492;28;20965;-75
2022/10/01 01:11:48;;;;;;;18.23;11.57;;;11.20;80.10;;;;;;5021793;28;21104;-75
2022/10/01 01:14:22;;;;;;;15.53;11.07;;;11.20;80.20;;;;;;5023476;28;20463;-75
2022/10/01 01:16:56;;;;;;;16.60;10.67;;;11.20;80.30;;;;;;5020991;28;20545;-76
2022/10/01 01:19:38;;;;;;;16.20;10.93;;;11.20;80.30;;;;;;5015735;28;20464;-74
2022/10/01 01:22:07;;;;;;;18.37;10.90;;;11.20;80.40;;;;;;5032301;28;20550;-74
2022/10/01 01:24:48;;;;;;;17.97;11.83;;;11.20;80.40;;;;;;5024051;28;20480;-76
2022/10/01 01:27:27;;;;;;;17.00;11.93;;;11.20;80.30;;;;;;5022339;28;20534;-75
2022/10/01 01:30:03;;;;;;;18.60;11.90;;;11.30;80.30;;;;;;5032074;28;21251;-75
2022/10/01 01:32:45;;;;;;;17.80;11.53;;;11.30;80.50;;;;;;5023383;28;21198;-74
2022/10/01 01:35:19;;;;;;;15.20;11.40;;;11.30;80.50;;;;;;5023022;28;20451;-75
2022/10/01 01:37:53;;;;;;;19.47;12.00;;;11.30;80.60;;;;;;5023515;28;20511;-74
2022/10/01 01:40:23;;;;;;;16.57;11.17;;;11.30;80.60;;;;;;5028776;28;20907;-75
2022/10/01 01:42:52;;;;;;;18.30;11.83;;;11.40;80.30;;;;;;5020121;28;20952;-76
2022/10/01 01:45:27;;;;;;;18.00;11.27;;;11.40;80.30;;;;;;5025999;28;20475;-75
2022/10/01 01:47:58;;;;;;;17.87;11.83;;;11.40;80.50;;;;;;5021091;28;20459;-74
2022/10/01 01:50:29;;;;;;;18.50;11.93;;;11.30;80.50;;;;;;5022883;28;20469;-74
2022/10/01 01:52:58;;;;;;;17.43;10.33;;;11.40;80.60;;;;;;5025243;28;20593;-74
2022/10/01 01:55:28;;;;;;;17.73;10.70;;;11.40;80.60;;;;;;5025671;28;20484;-74
2022/10/01 01:57:57;;;;;;;16.00;10.90;;;11.40;80.70;;;;;;5023225;28;21031;-75
2022/10/01 02:00:26;;;;;;;16.90;10.67;;;11.40;80.70;;;;;;5025255;28;20537;-74
2022/10/01 02:02:56;;;;;;;15.13;10.77;;;11.40;80.70;;;;;;5024527;28;20476;-74
2022/10/01 02:05:28;;;;;;;17.83;11.13;;;11.50;80.70;;;;;;5022824;28;20476;-74
2022/10/01 02:08:25;;;;;;;18.77;11.20;;;11.50;80.70;;;;;;5022722;28;20448;-76
2022/10/01 02:11:10;;;;;;;14.97;10.60;;;11.40;80.70;;;;;;5023729;28;20554;-75
2022/10/01 02:13:48;;;;;;;15.27;10.20;;;11.40;80.70;;;;;;5013990;28;20520;-74
2022/10/01 02:16:26;;;;;;;15.70;11.00;;;11.30;80.70;;;;;;5022323;28;21376;-76
2022/10/01 02:19:00;;;;;;;14.43;10.30;;;11.40;80.90;;;;;;5022893;28;20477;-75
2022/10/01 02:21:33;;;;;;;15.07;9.60;;;11.30;80.80;;;;;;5022342;28;20862;-75
2022/10/01 02:24:06;;;;;;;17.37;10.37;;;11.40;80.90;;;;;;5022117;28;21089;-76
2022/10/01 02:26:35;;;;;;;21.03;11.87;;;11.40;80.90;;;;;;5022911;28;20483;-74
2022/10/01 02:29:07;;;;;;;13.70;10.00;;;11.40;80.90;;;;;;5024870;28;20448;-75
2022/10/01 02:31:36;;;;;;;20.50;11.67;;;11.40;80.80;;;;;;5020981;28;20528;-73
2022/10/01 02:34:08;;;;;;;14.10;9.93;;;11.40;80.80;;;;;;5022092;28;20517;-76
2022/10/01 02:36:41;;;;;;;16.87;10.83;;;11.40;80.80;;;;;;5031647;28;20486;-75
2022/10/01 02:39:10;;;;;;;15.10;10.57;;;11.40;80.80;;;;;;5021557;28;20463;-74
2022/10/01 02:41:38;;;;;;;16.40;11.50;;;11.40;80.80;;;;;;5022459;28;21035;-75
2022/10/01 02:44:09;;;;;;;18.70;11.20;;;11.30;80.80;;;;;;5033161;28;20562;-75
2022/10/01 02:46:45;;;;;;;18.20;11.20;;;11.30;80.90;;;;;;5023231;28;20588;-75
2022/10/01 02:49:13;;;;;;;16.73;10.90;;;11.30;80.90;;;;;;5025987;28;20502;-74
2022/10/01 02:51:53;;;;;;;15.17;9.30;;;11.30;81.00;;;;;;5026108;28;20450;-74
2022/10/01 02:54:25;;;;;;;18.67;10.40;;;11.30;81.00;;;;;;5027307;28;20451;-75
2022/10/01 02:59:39;;;;;;;16.13;9.80;;;11.20;81.10;;;;;;5028195;28;20455;-74
2022/10/01 03:02:08;;;;;;;16.00;10.97;;;11.30;81.20;;;;;;5027293;28;20553;-76
2022/10/01 03:04:37;;;;;;;14.83;9.40;;;11.30;81.10;;;;;;5024707;28;20476;-74
2022/10/01 03:07:05;;;;;;;20.97;10.60;;;11.30;81.10;;;;;;5026457;28;20583;-73
2022/10/01 03:09:35;;;;;;;14.70;9.60;;;11.30;81.20;;;;;;5027040;28;20464;-74
2022/10/01 03:12:05;;;;;;;16.43;9.57;;;11.30;81.10;;;;;;5026471;28;20464;-74
2022/10/01 03:14:33;;;;;;;14.27;9.97;;;11.20;81.10;;;;;;5028084;28;20509;-74
2022/10/01 03:17:01;;;;;;;14.77;9.73;;;11.20;81.20;;;;;;5026831;28;20549;-74
2022/10/01 03:19:30;;;;;;;22.53;11.33;;;11.30;81.20;;;;;;5026945;28;20460;-75
2022/10/01 03:21:58;;;;;;;13.37;10.10;;;11.30;81.20;;;;;;5025619;28;20468;-74
2022/10/01 03:24:26;;;;;;;14.70;9.60;;;11.30;81.30;;;;;;5026243;28;20518;-74
2022/10/01 03:26:55;;;;;;;17.73;9.33;;;11.30;81.30;;;;;;5030211;28;20533;-75
2022/10/01 03:29:23;;;;;;;14.63;9.33;;;11.30;81.30;;;;;;5026886;28;20463;-75
2022/10/01 03:31:52;;;;;;;14.93;9.30;;;11.30;81.40;;;;;;5029252;28;20464;-75
2022/10/01 03:34:20;;;;;;;15.07;9.97;;;11.30;81.40;;;;;;5026949;28;20482;-75
2022/10/01 03:36:51;;;;;;;15.53;9.37;;;11.30;81.30;;;;;;5029489;28;20548;-75
2022/10/01 03:39:19;;;;;;;14.73;9.67;;;11.30;81.20;;;;;;5030287;28;20463;-75
2022/10/01 03:41:47;;;;;;;17.07;9.17;;;11.30;81.20;;;;;;5025033;28;20488;-75
2022/10/01 03:44:15;;;;;;;13.90;9.53;;;11.30;81.30;;;;;;5029761;28;20491;-75
2022/10/01 03:46:43;;;;;;;16.13;8.70;;;11.30;81.30;;;;;;5027756;28;20557;-75
2022/10/01 03:49:11;;;;;;;15.57;9.30;;;11.30;81.40;;;;;;5030065;28;20456;-75
2022/10/01 03:51:39;;;;;;;12.83;9.00;;;11.30;81.30;;;;;;5024675;28;20459;-75
2022/10/01 03:54:10;;;;;;;12.97;9.13;;;11.40;81.30;;;;;;5025475;28;20526;-74
2022/10/01 03:56:39;;;;;;;16.80;8.57;;;11.30;81.20;;;;;;5029081;28;20856;-74
2022/10/01 03:59:07;;;;;;;14.37;8.70;;;11.40;81.10;;;;;;5012423;28;20518;-74
2022/10/01 04:01:35;;;;;;;13.63;8.73;;;11.30;81.10;;;;;;5017269;28;20525;-74
2022/10/01 04:04:04;;;;;;;13.30;9.20;;;11.30;81.30;;;;;;5032994;28;20821;-74
2022/10/01 04:06:32;;;;;;;18.50;9.03;;;11.30;81.30;;;;;;5014852;28;21410;-74
2022/10/01 04:09:00;;;;;;;14.93;8.87;;;11.30;81.30;;;;;;5030629;28;20517;-74
2022/10/01 04:11:30;;;;;;;13.97;9.27;;;11.40;81.30;;;;;;5027137;28;20546;-74
2022/10/01 04:13:58;;;;;;;11.77;7.37;;;11.40;81.30;;;;;;5027810;28;20547;-74
2022/10/01 04:16:26;;;;;;;12.40;8.50;;;11.40;81.30;;;;;;5026071;28;20652;-74
2022/10/01 04:18:54;;;;;;;13.67;8.33;;;11.30;81.30;;;;;;5025356;28;20576;-75
2022/10/01 04:21:22;;;;;;;11.17;8.27;;;11.40;81.20;;;;;;5025297;28;21060;-74
2022/10/01 04:23:50;;;;;;;11.60;7.87;;;11.40;81.30;;;;;;5026521;28;20500;-74
2022/10/01 04:26:18;;;;;;;13.40;8.53;;;11.40;81.20;;;;;;5025656;28;20479;-74
2022/10/01 04:28:47;;;;;;;12.13;7.60;;;11.40;81.30;;;;;;5026874;28;20505;-74
2022/10/01 04:31:24;;;;;;;11.50;7.67;;;11.40;81.30;;;;;;5023034;28;20483;-74
2022/10/01 04:33:54;;;;;;;13.10;7.20;;;11.40;81.20;;;;;;5024897;28;20570;-75
2022/10/01 04:36:22;;;;;;;10.47;7.70;;;11.40;81.30;;;;;;5025350;28;20514;-74
2022/10/01 04:38:51;;;;;;;14.70;8.20;;;11.40;81.30;;;;;;5021354;28;20539;-74
2022/10/01 04:41:24;;;;;;;12.53;7.37;;;11.40;81.30;;;;;;5022902;28;20482;-74
2022/10/01 04:43:53;;;;;;;10.00;6.70;;;11.40;81.30;;;;;;5025571;28;20472;-74
2022/10/01 04:46:21;;;;;;;11.13;7.30;;;11.30;81.40;;;;;;5024573;28;20496;-75
2022/10/01 04:48:49;;;;;;;13.00;6.23;;;11.40;81.40;;;;;;5025722;28;20460;-75
2022/10/01 04:51:17;;;;;;;10.87;6.63;;;11.40;81.40;;;;;;5022442;28;20517;-76
2022/10/01 04:53:45;;;;;;;12.10;7.90;;;11.40;81.40;;;;;;5026440;28;20460;-75
2022/10/01 04:56:13;;;;;;;11.00;7.13;;;11.50;81.50;;;;;;5022660;28;20514;-75
2022/10/01 04:58:41;;;;;;;9.93;6.47;;;11.50;81.20;;;;;;5026579;28;21204;-75
2022/10/01 05:01:11;;;;;;;10.43;6.70;;;11.50;81.20;;;;;;5026407;28;20533;-75
2022/10/01 05:03:40;;;;;;;9.43;6.23;;;11.50;81.20;;;;;;5024677;28;20451;-75
2022/10/01 05:06:08;;;;;;;10.03;6.23;;;11.50;81.20;;;;;;5022513;28;20511;-75
2022/10/01 05:08:36;;;;;;;12.23;5.87;;;11.50;81.20;;;;;;5024674;28;20560;-75
2022/10/01 05:11:05;;;;;;;9.00;5.87;;;11.60;81.20;;;;;;5022722;28;20468;-75
2022/10/01 05:13:33;;;;;;;9.20;5.60;;;11.60;81.10;;;;;;5026880;28;20991;-75
2022/10/01 05:16:02;;;;;;;13.00;5.70;;;11.60;81.10;;;;;;5025741;28;20475;-74
2022/10/01 05:18:32;;;;;;;7.83;5.67;;;11.60;81.10;;;;;;5026196;28;20467;-74
2022/10/01 05:21:04;;;;;;;12.60;5.57;;;11.60;81.10;;;;;;5026191;28;20460;-74
2022/10/01 05:23:33;;;;;;;9.73;5.43;;;11.60;81.00;;;;;;5022679;28;20467;-76
2022/10/01 05:26:03;;;;;;;9.40;5.87;;;11.60;81.10;;;;;;5025209;28;20524;-76
2022/10/01 05:28:31;;;;;;;8.50;5.80;;;11.60;81.10;;;;;;5023416;28;20454;-75
2022/10/01 05:31:00;;;;;;;9.40;6.10;;;11.60;81.00;;;;;;5024004;28;20470;-76
2022/10/01 05:33:28;;;;;;;11.37;6.23;;;11.60;81.00;;;;;;5023820;28;20980;-75
2022/10/01 05:35:58;;;;;;;10.70;5.90;;;11.60;81.10;;;;;;5020323;28;20523;-75
2022/10/01 05:38:26;;;;;;;11.63;5.80;;;11.70;81.00;;;;;;5034001;28;20562;-76
2022/10/01 05:40:54;;;;;;;9.80;4.07;;;11.70;80.90;;;;;;5024558;28;20565;-75
2022/10/01 05:43:25;;;;;;;7.70;5.07;;;11.70;80.90;;;;;;5024957;28;20574;-74
2022/10/01 05:45:53;;;;;;;6.57;4.50;;;11.70;80.80;;;;;;5024337;28;20495;-76
2022/10/01 05:48:21;;;;;;;7.73;4.70;;;11.60;80.90;;;;;;5027615;28;21158;-76
2022/10/01 05:50:50;;;;;;;6.73;4.40;;;11.60;80.90;;;;;;5024411;28;20521;-76
2022/10/01 05:53:22;;;;;;;7.07;3.67;;;11.60;81.00;;;;;;5025516;28;20965;-75
2022/10/01 05:55:50;;;;;;;7.67;4.53;;;11.60;81.00;;;;;;5024981;28;20480;-75
2022/10/01 05:58:18;;;;;;;8.93;4.20;;;11.60;81.00;;;;;;5026938;28;20522;-75
2022/10/01 06:00:46;;;;;;;7.60;4.60;;;11.60;81.10;;;;;;5020050;28;20472;-75
2022/10/01 06:03:14;;;;;;;9.70;4.47;;;11.60;81.10;;;;;;5024755;28;20455;-75
2022/10/01 06:05:44;;;;;;;8.77;4.70;;;11.60;81.10;;;;;;5024673;28;20463;-75
2022/10/01 06:08:13;;;;;;;7.87;4.77;;;11.60;81.00;;;;;;5022300;28;20479;-75
2022/10/01 06:10:43;;;;;;;7.83;4.40;;;11.60;81.00;;;;;;5024362;28;20513;-74
2022/10/01 06:13:16;;;;;;;7.70;4.37;;;11.60;81.10;;;;;;5023007;28;20465;-74
2022/10/01 06:15:45;;;;;;;7.43;4.20;;;11.60;81.10;;;;;;5023036;28;20452;-75
2022/10/01 06:18:13;;;;;;;7.73;4.77;;;11.60;81.20;;;;;;5023354;28;20483;-76
2022/10/01 06:20:41;;;;;;;7.93;4.27;;;11.60;81.20;;;;;;5025533;28;20459;-74
2022/10/01 06:23:11;;;;;;;7.37;4.20;;;11.60;81.20;;;;;;5022956;28;21050;-75
2022/10/01 06:25:40;;;;;;;9.53;5.03;;;11.60;81.30;;;;;;5027278;28;20456;-75
2022/10/01 06:28:13;;;;;;;9.27;4.60;;;11.50;81.40;;;;;;5025990;28;20467;-74
2022/10/01 06:30:42;;;;;;;7.27;4.60;;;11.60;81.40;;;;;;5029381;28;20456;-74
2022/10/01 06:33:12;;;;;;;7.57;4.13;;;11.60;81.40;;;;;;5027761;28;20486;-74
2022/10/01 06:35:42;;;;;;;8.57;4.13;;;11.60;81.50;;;;;;5028612;28;20542;-75
2022/10/01 06:38:11;;;;;;;7.10;4.10;;;11.60;81.50;;;;;;5028175;28;20468;-75
2022/10/01 06:40:40;;;;;;;6.40;3.73;;;11.70;81.50;;;;;;5027153;28;20593;-75
2022/10/01 06:43:10;;;;;;;9.50;4.03;;;11.70;81.30;;;;;;5027778;28;20464;-74
2022/10/01 06:45:41;;;;;;;8.37;4.10;;;11.70;81.30;;;;;;5026246;28;20520;-73
2022/10/01 06:48:13;;;;;;;7.93;4.13;;;11.60;81.40;;;;;;5022824;28;20479;-74
2022/10/01 06:50:42;;;;;;;7.23;3.70;;;11.60;81.50;;;;;;5016982;28;20455;-75
2022/10/01 06:53:11;;;;;;;10.17;4.53;;;11.60;81.50;;;;;;5027652;28;20495;-73
2022/10/01 06:55:40;;;;;;;8.20;4.20;;;11.50;81.60;;;;;;5026813;28;20458;-75
2022/10/01 06:58:13;;;;;;;6.17;3.63;;;11.50;81.70;;;;;;5031467;28;20463;-73
2022/10/01 07:00:42;;;;;;;8.10;3.80;;;11.50;81.80;;;;;;5026086;28;20464;-76
2022/10/01 07:03:14;;;;;;;7.13;4.30;;;11.50;81.80;;;;;;5025342;28;20454;-75
2022/10/01 07:05:42;;;;;;;6.73;4.20;;;11.50;81.90;;;;;;5028544;28;20471;-75
2022/10/01 07:08:10;;;;;;;7.30;4.10;;;11.60;81.90;;;;;;5027654;28;20554;-74
2022/10/01 07:10:39;;;;;;;6.27;3.40;;;11.60;82.00;;;;;;5030368;28;20463;-75
2022/10/01 07:13:09;;;;;;;5.97;3.47;;;11.60;81.90;;;;;;5027300;28;20495;-74
2022/10/01 07:15:39;;;;;;;7.80;3.73;;;11.60;82.00;;;;;;5027037;28;20491;-73
2022/10/01 07:18:08;;;;;;;5.90;3.00;;;11.60;82.10;;;;;;5032146;28;20543;-73
2022/10/01 07:20:39;;;;;;;7.60;4.00;;;11.60;82.10;;;;;;5028669;28;20463;-74
2022/10/01 07:23:10;;;;;;;7.40;3.33;;;11.60;82.10;;;;;;5028924;28;20828;-74
2022/10/01 07:25:39;;;;;;;7.27;3.87;;;11.60;82.10;;;;;;5027905;28;20460;-75
2022/10/01 07:28:14;;;;;;;7.07;4.40;;;11.60;82.30;;;;;;5021670;28;20506;-76
2022/10/01 07:30:47;;;;;;;7.13;4.00;;;11.60;82.40;;;;;;5028482;28;20471;-75
2022/10/01 07:33:18;;;;;;;7.80;3.83;;;11.70;82.40;;;;;;5028513;28;20501;-74
2022/10/01 07:35:46;;;;;;;5.87;3.60;;;11.70;82.40;;;;;;5027423;28;20480;-75
2022/10/01 07:38:15;;;;;;;6.73;4.00;;;11.70;82.30;;;;;;5026182;28;20474;-74
2022/10/01 07:40:43;;;;;;;5.77;3.40;;;11.70;82.40;;;;;;5026909;28;20462;-75
2022/10/01 07:43:13;;;;;;;7.00;3.40;;;11.70;82.40;;;;;;5028329;28;20582;-76
2022/10/01 07:45:41;;;;;;;7.40;3.73;;;11.70;82.40;;;;;;5023267;28;20968;-76
2022/10/01 07:48:09;;;;;;;6.90;3.50;;;11.80;82.30;;;;;;5026107;28;20851;-74
2022/10/01 07:50:37;;;;;;;9.50;4.40;;;11.80;82.40;;;;;;5027484;28;20483;-75
2022/10/01 07:53:05;;;;;;;8.63;3.60;;;11.80;82.40;;;;;;5025908;28;20495;-74
2022/10/01 07:55:33;;;;;;;6.90;3.20;;;11.80;82.40;;;;;;5026631;28;20537;-74
2022/10/01 07:58:01;;;;;;;9.10;3.47;;;11.80;82.30;;;;;;5024737;28;20459;-75
2022/10/01 08:00:32;;;;;;;6.60;3.57;;;11.80;82.40;;;;;;5023907;28;20456;-74
2022/10/01 08:03:01;;;;;;;7.60;3.00;;;11.80;82.40;;;;;;5022476;28;20475;-74
2022/10/01 08:05:32;;;;;;;7.13;3.80;;;11.80;82.40;;;;;;5022401;28;20506;-74
2022/10/01 08:08:01;;;;;;;6.43;3.47;;;11.90;82.40;;;;;;5028609;28;20480;-75
2022/10/01 08:10:31;;;;;;;6.27;3.70;;;11.80;82.50;;;;;;5025060;28;20457;-73
2022/10/01 08:13:00;;;;;;;6.40;3.07;;;11.80;82.60;;;;;;5027469;28;20455;-74
2022/10/01 08:15:29;;;;;;;8.60;3.10;;;11.80;82.60;;;;;;5024297;28;21020;-75
2022/10/01 08:18:00;;;;;;;7.47;3.30;;;11.80;82.70;;;;;;5021643;28;20467;-74
2022/10/01 08:20:29;;;;;;;10.67;3.80;;;11.80;82.80;;;;;;5026652;28;20565;-75
2022/10/01 08:23:01;;;;;;;6.67;3.47;;;11.80;83.00;;;;;;5026309;28;20593;-74
2022/10/01 08:25:30;;;;;;;6.40;3.87;;;11.80;83.10;;;;;;5023258;28;20568;-74
2022/10/01 08:27:58;;;;;;;6.23;3.80;;;11.70;83.80;;;;;;5021899;28;20576;-76
2022/10/01 08:30:27;;;;;;;7.50;3.27;;;11.70;83.50;;;;;;5027570;28;20925;-74
2022/10/01 08:32:57;;;;;;;7.80;3.67;;;11.80;83.40;;;;;;5025450;28;20469;-75
2022/10/01 08:35:27;;;;;;;9.43;3.43;;;11.80;83.60;;;;;;5033070;28;21258;-75
2022/10/01 08:37:55;;;;;;;6.37;3.37;;;11.80;83.60;;;;;;5023709;28;20464;-76
2022/10/01 08:40:23;;;;;;;5.53;3.53;;;11.80;83.70;;;;;;5027830;28;20530;-74
2022/10/01 08:42:56;;;;;;;5.37;3.00;;;11.80;83.70;;;;;;5024242;28;20468;-74
2022/10/01 08:45:28;;;;;;;11.27;3.80;;;11.90;83.70;;;;;;5025987;28;20509;-74
2022/10/01 08:48:04;;;;;;;6.23;3.07;;;11.90;84.00;;;;;;5022526;28;20837;-75
2022/10/01 08:50:40;;;;;;;5.20;2.90;;;11.90;83.80;;;;;;5023540;28;20455;-75
2022/10/01 08:53:15;;;;;;;5.70;3.30;;;11.90;83.90;;;;;;5025979;28;20472;-75
2022/10/01 08:55:46;;;;;;;6.57;3.03;;;11.90;83.90;;;;;;5019716;28;20460;-76
2022/10/01 08:58:25;;;;;;;6.77;3.20;;;11.90;84.00;;;;;;5022268;28;21363;-75
2022/10/01 09:00:54;;;;;;;6.13;3.20;;;11.90;84.00;;;;;;5025718;28;20475;-73
2022/10/01 09:03:25;;;;;;;5.10;3.20;;;11.90;84.20;;;;;;5026654;28;20502;-75
2022/10/01 09:06:03;;;;;;;5.80;2.90;;;12.00;84.20;;;;;;5026472;28;21089;-74
2022/10/01 09:08:44;;;;;;;6.23;3.50;;;12.00;84.00;;;;;;5026424;28;20473;-74
2022/10/01 09:11:24;;;;;;;6.77;2.93;;;12.00;84.30;;;;;;5024874;28;20534;-74
2022/10/01 09:14:13;;;;;;;5.70;2.70;;;12.00;84.20;;;;;;5024204;28;20980;-74
2022/10/01 09:16:48;;;;;;;9.63;3.00;;;12.00;84.20;;;;;;5022860;28;20566;-73
2022/10/01 09:19:31;;;;;;;4.70;2.90;;;12.00;84.40;;;;;;5023849;28;20982;-73
2022/10/01 09:22:02;;;;;;;5.47;2.73;;;12.00;84.30;;;;;;5019331;28;20558;-74
2022/10/01 09:24:43;;;;;;;5.20;2.60;;;12.00;84.40;;;;;;5021576;28;20459;-73
2022/10/01 09:27:15;;;;;;;5.33;3.00;;;12.00;84.50;;;;;;5024333;28;20491;-74
2022/10/01 09:29:49;;;;;;;4.93;2.40;;;12.00;84.50;;;;;;5021132;28;20992;-76
2022/10/01 09:32:20;;;;;;;4.60;2.60;;;12.00;84.60;;;;;;5022978;28;20460;-74
2022/10/01 09:34:50;;;;;;;5.10;2.53;;;12.00;84.70;;;;;;5024874;28;20521;-73
2022/10/01 09:37:25;;;;;;;4.90;2.57;;;12.00;84.60;;;;;;5027651;28;20483;-74
2022/10/01 09:40:07;;;;;;;4.57;2.43;;;12.00;84.60;;;;;;5020913;28;20463;-75
2022/10/01 09:42:35;;;;;;;7.60;2.47;;;12.00;84.80;;;;;;5021733;28;20933;-73
2022/10/01 09:45:05;;;;;;;5.40;2.93;;;12.00;84.70;;;;;;5024835;28;20513;-75
2022/10/01 09:47:33;;;;;;;3.57;1.77;;;12.00;84.70;;;;;;5025634;28;20534;-75
2022/10/01 09:50:06;;;;;;;6.20;2.33;;;12.00;84.70;;;;;;5026324;28;20537;-75
2022/10/01 09:52:37;;;;;;;4.50;2.20;;;12.00;84.80;;;;;;5035800;28;20456;-72
2022/10/01 09:55:22;;;;;;;5.30;2.17;;;12.00;84.80;;;;;;5022782;28;21016;-74
2022/10/01 09:57:57;;;;;;;5.80;2.13;;;12.00;84.90;;;;;;5024353;28;20627;-72
2022/10/01 10:00:26;;;;;;;4.40;2.13;;;12.00;84.80;;;;;;5022210;28;20473;-73
2022/10/01 10:02:55;;;;;;;4.30;2.27;;;12.10;84.80;;;;;;5025489;28;20468;-74
2022/10/01 10:05:27;;;;;;;3.50;1.63;;;12.10;85.00;;;;;;5025104;28;20447;-72
2022/10/01 10:07:57;;;;;;;4.17;1.87;;;12.10;84.90;;;;;;5023642;28;20463;-72
2022/10/01 10:10:29;;;;;;;3.90;1.80;;;12.10;84.90;;;;;;5022597;28;20443;-72
2022/10/01 10:13:01;;;;;;;3.60;1.50;;;12.20;85.00;;;;;;5023950;28;20460;-73
2022/10/01 10:15:31;;;;;;;4.07;1.67;;;12.20;85.10;;;;;;5025159;28;20463;-72
2022/10/01 10:18:06;;;;;;;4.47;1.70;;;12.20;85.10;;;;;;5027159;28;21023;-73
2022/10/01 10:20:40;;;;;;;3.97;1.90;;;12.30;85.10;;;;;;5023028;28;21010;-74
2022/10/01 10:23:14;;;;;;;4.10;1.80;;;12.30;85.20;;;;;;5020478;28;20466;-73
2022/10/01 10:25:42;;;;;;;3.90;1.70;;;12.30;85.30;;;;;;5016094;28;20538;-73
2022/10/01 10:28:19;;;;;;;4.23;2.27;;;12.30;85.60;;;;;;5023891;28;20479;-74
2022/10/01 10:30:48;;;;;;;5.77;1.90;;;12.40;85.50;;;;;;5022792;28;21219;-73
2022/10/01 10:33:19;;;;;;;4.80;2.07;;;12.40;85.40;;;;;;5022433;28;20463;-75
2022/10/01 10:36:00;;;;;;;4.27;1.93;;;12.40;85.40;;;;;;5022863;28;20521;-74
2022/10/01 10:38:32;;;;;;;5.00;1.93;;;12.40;85.30;;;;;;5022377;28;20491;-74
2022/10/01 10:41:02;;;;;;;4.20;2.13;;;12.40;85.30;;;;;;5022749;28;20562;-75
2022/10/01 10:43:34;;;;;;;5.07;2.00;;;12.40;85.30;;;;;;5019385;28;20977;-75
2022/10/01 10:46:02;;;;;;;4.70;2.20;;;12.40;85.30;;;;;;5023501;28;21129;-74
2022/10/01 10:48:35;;;;;;;4.60;2.00;;;12.40;85.40;;;;;;5023529;28;20484;-75
2022/10/01 10:51:06;;;;;;;3.80;1.73;;;12.40;85.50;;;;;;5025604;28;20546;-75
2022/10/01 10:53:42;;;;;;;4.10;2.23;;;12.40;85.70;;;;;;5024015;28;20472;-76
2022/10/01 10:56:20;;;;;;;4.33;2.00;;;12.40;85.80;;;;;;5022254;28;20506;-74
2022/10/01 10:58:49;;;;;;;4.97;2.10;;;12.40;85.90;;;;;;5023870;28;20441;-75
2022/10/01 11:01:24;;;;;;;4.70;1.97;;;12.50;85.60;;;;;;5024941;28;20456;-75
2022/10/01 11:03:55;;;;;;;3.70;1.77;;;12.50;85.70;;;;;;5022365;28;20526;-75
2022/10/01 11:06:24;;;;;;;4.10;1.70;;;12.50;85.70;;;;;;5023892;28;20480;-75
2022/10/01 11:09:00;;;;;;;7.67;2.50;;;12.60;85.70;;;;;;5025398;28;20483;-75
2022/10/01 11:11:44;;;;;;;4.10;1.80;;;12.60;85.70;;;;;;5022132;28;20474;-75
2022/10/01 11:14:23;;;;;;;3.93;1.70;;;12.60;85.80;;;;;;5028873;28;20460;-75
2022/10/01 11:17:04;;;;;;;4.30;2.00;;;12.70;85.80;;;;;;5026441;28;20552;-75
2022/10/01 11:19:44;;;;;;;4.73;1.87;;;12.70;86.10;;;;;;5025935;28;20501;-74
2022/10/01 11:22:40;;;;;;;4.53;1.77;;;12.70;86.00;;;;;;5026852;28;20494;-74
2022/10/01 11:25:19;;;;;;;5.00;1.80;;;12.80;86.00;;;;;;5025447;28;20555;-75
2022/10/01 11:27:57;;;;;;;4.33;1.90;;;12.80;85.90;;;;;;5029693;28;20479;-74
2022/10/01 11:30:29;;;;;;;3.77;1.60;;;12.80;85.80;;;;;;5025074;28;21219;-75
2022/10/01 11:33:09;;;;;;;3.70;1.30;;;12.90;85.90;;;;;;5024637;28;20464;-75
2022/10/01 11:35:54;;;;;;;3.47;1.53;;;12.90;86.00;;;;;;5025709;28;20546;-75
2022/10/01 11:38:40;;;;;;;3.93;1.57;;;13.00;86.00;;;;;;5022256;28;20496;-75
2022/10/01 11:41:20;;;;;;;3.97;1.70;;;13.00;86.10;;;;;;5042465;28;20460;-75
2022/10/01 11:43:51;;;;;;;4.90;1.50;;;13.00;86.20;;;;;;5023089;28;20518;-75
2022/10/01 11:46:30;;;;;;;3.60;1.37;;;13.10;86.20;;;;;;5021949;28;20557;-75
2022/10/01 11:49:08;;;;;;;4.13;1.60;;;13.10;86.20;;;;;;5028666;28;20480;-76
2022/10/01 11:51:42;;;;;;;4.03;1.30;;;13.20;86.20;;;;;;5017443;28;20460;-75
2022/10/01 11:54:15;;;;;;;3.93;1.53;;;13.20;86.20;;;;;;5024779;28;20490;-75
2022/10/01 11:59:37;;;;;;;3.50;1.50;;;13.30;86.20;;;;;;5026258;28;20789;-75
2022/10/01 12:02:14;;;;;;;3.93;1.83;;;13.30;86.00;;;;;;5040256;28;21052;-75
2022/10/01 12:04:49;;;;;;;3.97;1.60;;;13.30;85.80;;;;;;5025979;28;20497;-75
2022/10/01 12:07:25;;;;;;;3.60;1.53;;;13.30;85.80;;;;;;5024769;28;21071;-75
2022/10/01 12:10:00;;;;;;;3.30;1.40;;;13.30;85.80;;;;;;5026480;28;20475;-75
2022/10/01 12:12:35;;;;;;;4.80;1.83;;;13.30;86.00;;;;;;5025611;28;21061;-75
2022/10/01 12:15:09;;;;;;;3.53;1.57;;;13.30;86.00;;;;;;5026990;28;20467;-76
2022/10/01 12:17:44;;;;;;;4.23;1.87;;;13.30;85.90;;;;;;5023604;28;20488;-74
2022/10/01 12:20:23;;;;;;;4.23;2.10;;;13.30;86.00;;;;;;5027475;28;20451;-75
2022/10/01 12:22:52;;;;;;;4.60;1.73;;;13.30;86.00;;;;;;5026691;28;20447;-74
2022/10/01 12:25:29;;;;;;;4.00;1.90;;;13.30;86.10;;;;;;5024419;28;20468;-74
2022/10/01 12:28:04;;;;;;;5.83;2.23;;;13.30;86.00;;;;;;5025638;28;20448;-74
2022/10/01 12:30:40;;;;;;;4.30;1.60;;;13.30;86.00;;;;;;5024005;28;20865;-76
2022/10/01 12:33:38;;;;;;;4.57;2.17;;;13.30;86.00;;;;;;5026031;28;20541;-74
2022/10/01 12:36:18;;;;;;;5.03;2.30;;;13.30;86.10;;;;;;5021135;28;20538;-75
2022/10/01 12:39:13;;;;;;;4.70;2.00;;;13.40;86.10;;;;;;5016494;28;21036;-74
2022/10/01 12:41:51;;;;;;;4.57;1.80;;;13.40;86.10;;;;;;5021470;28;20504;-75
2022/10/01 12:44:39;;;;;;;4.07;1.97;;;13.40;86.20;;;;;;5024021;28;20444;-75
2022/10/01 12:47:17;;;;;;;3.40;1.70;;;13.40;86.20;;;;;;5026631;28;20548;-76
2022/10/01 12:49:56;;;;;;;3.90;1.90;;;13.40;86.30;;;;;;5021693;28;20476;-75
2022/10/01 12:52:39;;;;;;;5.23;1.93;;;13.40;86.30;;;;;;5028707;28;20515;-75
2022/10/01 12:55:38;;;;;;;6.53;1.63;;;13.50;86.40;;;;;;5032436;28;20460;-76
2022/10/01 12:58:19;;;;;;;3.80;1.60;;;13.50;86.30;;;;;;5015177;28;20468;-77
2022/10/01 13:00:57;;;;;;;4.90;1.80;;;13.50;86.30;;;;;;5038407;28;20981;-76
2022/10/01 13:03:58;;;;;;;4.30;1.77;;;13.50;86.40;;;;;;5029473;28;20462;-75
2022/10/01 13:06:40;;;;;;;4.10;1.90;;;13.50;86.40;;;;;;5023930;28;20479;-75
2022/10/01 13:09:16;;;;;;;5.00;1.80;;;13.50;86.40;;;;;;5027556;28;20542;-75
2022/10/01 13:12:07;;;;;;;4.97;2.00;;;13.50;86.30;;;;;;5016789;28;20460;-75